createdAt,value
2019-02-11T00:02:18.622Z,98.00
2019-02-11T00:04:48.965Z,97.90
2019-02-11T00:07:19.584Z,97.80
2019-02-11T00:09:50.102Z,97.70
2019-02-11T00:12:20.931Z,97.60
2019-02-11T00:14:51.554Z,97.50
2019-02-11T00:17:21.916Z,97.20
2019-02-11T00:19:52.581Z,97.90
2019-02-11T00:22:23.181Z,96.20
2019-02-11T00:24:53.541Z,97.30
2019-02-11T00:27:23.879Z,98.80
2019-02-11T00:29:54.239Z,99.50
2019-02-11T00:32:25.108Z,99.80
2019-02-11T00:34:55.767Z,99.60
2019-02-11T00:37:26.365Z,99.90
2019-02-11T00:39:57.030Z,99.90
2019-02-11T00:42:27.617Z,99.90
2019-02-11T00:44:57.976Z,99.90
2019-02-11T00:47:28.626Z,99.90
2019-02-11T00:49:59.198Z,99.40
2019-02-11T00:52:29.584Z,99.70
2019-02-11T00:54:59.886Z,99.70
2019-02-11T00:57:30.800Z,99.40
2019-02-11T01:00:01.138Z,99.30
2019-02-11T01:02:32.031Z,99.60
2019-02-11T01:05:02.422Z,99.90
2019-02-11T01:07:33.050Z,99.90
2019-02-11T01:10:03.627Z,99.50
2019-02-11T01:12:34.487Z,99.20
2019-02-11T01:15:08.642Z,97.70
2019-02-11T01:17:38.967Z,97.10
2019-02-11T01:20:11.897Z,97.10
2019-02-11T01:22:42.601Z,96.80
2019-02-11T01:25:12.920Z,96.80
2019-02-11T01:27:43.541Z,97.60
2019-02-11T01:30:14.143Z,97.30
2019-02-11T01:32:44.461Z,97.40
2019-02-11T01:35:15.348Z,97.50
2019-02-11T01:37:45.946Z,97.20
2019-02-11T01:40:16.282Z,97.80
2019-02-11T01:42:46.658Z,98.00
2019-02-11T01:45:17.213Z,98.60
2019-02-11T01:47:48.082Z,98.90
2019-02-11T01:50:18.445Z,98.80
2019-02-11T01:52:49.045Z,99.50
2019-02-11T01:55:19.435Z,99.60
2019-02-11T01:57:50.095Z,98.30
2019-02-11T02:00:20.966Z,98.30
2019-02-11T02:02:51.328Z,98.90
2019-02-11T02:05:21.669Z,99.00
2019-02-11T02:07:51.993Z,99.30
2019-02-11T02:10:22.352Z,99.20
2019-02-11T02:12:53.014Z,99.20
2019-02-11T02:15:23.325Z,99.50
2019-02-11T02:17:53.667Z,99.90
2019-02-11T02:20:24.029Z,99.90
2019-02-11T02:22:54.377Z,99.90
2019-02-11T02:25:24.683Z,99.90
2019-02-11T02:27:55.313Z,99.90
2019-02-11T02:30:25.721Z,99.90
2019-02-11T02:32:56.337Z,99.90
2019-02-11T02:35:26.644Z,99.90
2019-02-11T02:37:57.307Z,99.90
2019-02-11T02:40:27.974Z,99.90
2019-02-11T02:42:58.337Z,99.90
2019-02-11T02:45:28.662Z,99.90
2019-02-11T02:47:59.259Z,99.90
2019-02-11T02:50:29.616Z,99.90
2019-02-11T02:53:00.198Z,99.90
2019-02-11T02:55:30.831Z,99.90
2019-02-11T02:58:01.142Z,99.90
2019-02-11T03:00:31.793Z,99.90
2019-02-11T03:03:02.135Z,99.90
2019-02-11T03:05:32.713Z,99.90
2019-02-11T03:08:03.324Z,99.90
2019-02-11T03:10:34.523Z,99.90
2019-02-11T03:13:05.289Z,99.90
2019-02-11T03:15:35.869Z,99.90
2019-02-11T03:18:06.499Z,99.90
2019-02-11T03:20:37.105Z,99.90
2019-02-11T03:23:07.447Z,99.90
2019-02-11T03:25:37.823Z,99.90
2019-02-11T03:28:08.426Z,99.90
2019-02-11T03:30:39.046Z,99.90
2019-02-11T03:33:09.682Z,99.90
2019-02-11T03:35:39.990Z,99.90
2019-02-11T03:38:10.576Z,99.90
2019-02-11T03:40:40.927Z,99.90
2019-02-11T03:43:11.582Z,99.90
2019-02-11T03:45:42.099Z,99.90
2019-02-11T03:48:12.408Z,99.90
2019-02-11T03:50:43.022Z,99.90
2019-02-11T03:53:13.367Z,99.90
2019-02-11T03:55:43.733Z,99.90
2019-02-11T03:58:14.385Z,99.90
2019-02-11T04:00:44.754Z,99.90
2019-02-11T04:03:15.390Z,99.90
2019-02-11T04:05:45.724Z,99.90
2019-02-11T04:08:16.432Z,99.90
2019-02-11T04:10:47.055Z,99.90
2019-02-11T04:13:17.592Z,99.90
2019-02-11T04:15:48.191Z,99.90
2019-02-11T04:18:18.919Z,99.90
2019-02-11T04:20:49.294Z,99.90
2019-02-11T04:23:19.908Z,99.90
2019-02-11T04:25:50.545Z,99.90
2019-02-11T04:28:21.165Z,99.90
2019-02-11T04:30:51.765Z,99.90
2019-02-11T04:33:22.136Z,99.90
2019-02-11T04:35:52.449Z,99.90
2019-02-11T04:38:23.067Z,99.90
2019-02-11T04:40:53.415Z,99.90
2019-02-11T04:43:23.783Z,99.90
2019-02-11T04:45:54.157Z,99.90
2019-02-11T04:48:24.477Z,99.90
2019-02-11T04:50:55.282Z,99.90
2019-02-11T04:53:25.861Z,99.90
2019-02-11T04:55:56.508Z,99.90
2019-02-11T04:58:27.170Z,99.90
2019-02-11T05:00:57.496Z,99.90
2019-02-11T05:03:27.808Z,99.90
2019-02-11T05:05:58.432Z,99.90
2019-02-11T05:08:29.368Z,99.90
2019-02-11T05:11:00.029Z,99.90
2019-02-11T05:13:30.342Z,99.90
2019-02-11T05:16:00.974Z,99.90
2019-02-11T05:18:31.353Z,99.90
2019-02-11T05:21:01.765Z,99.90
2019-02-11T05:23:32.372Z,99.90
2019-02-11T05:26:02.966Z,99.90
2019-02-11T05:28:33.908Z,99.90
2019-02-11T05:31:04.251Z,99.90
2019-02-11T05:33:34.591Z,99.90
2019-02-11T05:36:04.999Z,99.90
2019-02-11T05:38:35.577Z,99.90
2019-02-11T05:41:06.648Z,99.90
2019-02-11T05:43:37.230Z,99.90
2019-02-11T05:46:07.867Z,99.90
2019-02-11T05:48:38.210Z,99.90
2019-02-11T05:51:09.156Z,99.90
2019-02-11T05:53:39.812Z,99.90
2019-02-11T05:56:10.396Z,99.90
2019-02-11T05:58:41.009Z,99.90
2019-02-11T06:01:11.347Z,99.90
2019-02-11T06:03:42.386Z,99.90
2019-02-11T06:06:12.796Z,99.90
2019-02-11T06:08:43.191Z,99.90
2019-02-11T06:11:13.532Z,99.90
2019-02-11T06:13:43.876Z,99.90
2019-02-11T06:16:14.379Z,99.90
2019-02-11T06:18:45.003Z,99.90
2019-02-11T06:21:15.647Z,99.90
2019-02-11T06:23:45.979Z,99.90
2019-02-11T06:26:16.396Z,99.90
2019-02-11T06:28:46.739Z,99.90
2019-02-11T06:31:17.154Z,99.90
2019-02-11T06:33:47.728Z,99.90
2019-02-11T06:36:18.357Z,99.90
2019-02-11T06:38:48.747Z,99.90
2019-02-11T06:41:19.748Z,99.90
2019-02-11T06:43:50.339Z,99.80
2019-02-11T06:46:21.051Z,99.80
2019-02-11T06:48:51.662Z,99.80
2019-02-11T06:51:22.928Z,99.80
2019-02-11T06:53:53.645Z,99.80
2019-02-11T06:56:24.275Z,99.80
2019-02-11T06:58:54.885Z,99.80
2019-02-11T07:01:25.221Z,99.80
2019-02-11T07:03:55.653Z,99.60
2019-02-11T07:06:26.703Z,99.80
2019-02-11T07:08:57.114Z,99.80
2019-02-11T07:11:28.135Z,99.80
2019-02-11T07:13:58.502Z,99.80
2019-02-11T07:16:29.078Z,99.80
2019-02-11T07:19:00.356Z,99.80
2019-02-11T07:21:30.833Z,99.80
2019-02-11T07:24:02.628Z,99.90
2019-02-11T07:26:33.025Z,99.90
2019-02-11T07:29:03.658Z,99.80
2019-02-11T07:31:33.991Z,99.90
2019-02-11T07:34:04.357Z,99.90
2019-02-11T07:36:34.695Z,99.80
2019-02-11T07:39:08.072Z,99.80
2019-02-11T07:41:45.841Z,99.90
2019-02-11T07:44:18.351Z,99.90
2019-02-11T07:46:48.955Z,99.60
2019-02-11T07:49:19.460Z,98.60
2019-02-11T07:51:50.190Z,98.90
2019-02-11T07:54:20.556Z,98.90
2019-02-11T07:56:51.447Z,99.70
2019-02-11T07:59:21.834Z,99.90
2019-02-11T08:01:52.432Z,99.90
2019-02-11T08:04:26.263Z,99.90
2019-02-11T08:06:55.039Z,99.90
2019-02-11T08:09:25.367Z,99.90
2019-02-11T08:11:55.998Z,99.90
2019-02-11T08:14:26.659Z,99.90
2019-02-11T08:16:56.997Z,99.90
2019-02-11T08:19:27.332Z,99.90
2019-02-11T08:21:58.628Z,99.90
2019-02-11T08:24:29.218Z,99.90
2019-02-11T08:26:59.841Z,99.90
2019-02-11T08:29:30.204Z,99.40
2019-02-11T08:32:00.607Z,98.80
2019-02-11T08:34:31.215Z,98.70
2019-02-11T08:37:01.844Z,98.80
2019-02-11T08:39:32.407Z,98.80
2019-02-11T08:42:03.110Z,98.80
2019-02-11T08:44:33.915Z,98.50
2019-02-11T08:47:04.514Z,98.40
2019-02-11T08:49:35.138Z,98.10
2019-02-11T08:52:05.482Z,97.30
2019-02-11T08:54:35.827Z,97.70
2019-02-11T08:57:06.541Z,98.00
2019-02-11T08:59:37.106Z,97.70
2019-02-11T09:02:07.428Z,98.10
2019-02-11T09:04:37.773Z,98.10
2019-02-11T09:07:08.181Z,98.00
2019-02-11T09:09:38.539Z,98.20
2019-02-11T09:12:09.147Z,97.30
2019-02-11T09:14:39.536Z,97.80
2019-02-11T09:17:10.626Z,98.50
2019-02-11T09:19:41.298Z,98.20
2019-02-11T09:22:11.632Z,97.40
2019-02-11T09:24:42.262Z,96.30
2019-02-11T09:27:12.869Z,94.00
2019-02-11T09:29:43.181Z,92.40
2019-02-11T09:32:13.732Z,93.10
2019-02-11T09:34:44.076Z,92.50
2019-02-11T09:37:14.580Z,90.10
2019-02-11T09:39:44.895Z,84.30
2019-02-11T09:42:15.260Z,83.80
2019-02-11T09:44:46.101Z,80.00
2019-02-11T09:47:16.476Z,82.20
2019-02-11T09:49:54.322Z,81.10
2019-02-11T09:52:24.984Z,80.70
2019-02-11T09:54:55.292Z,81.60
2019-02-11T09:57:26.773Z,80.70
2019-02-11T09:59:57.170Z,78.60
2019-02-11T10:02:27.512Z,77.50
2019-02-11T10:04:58.503Z,77.20
2019-02-11T10:07:29.119Z,77.30
2019-02-11T10:09:59.461Z,77.80
2019-02-11T10:12:30.473Z,79.00
2019-02-11T10:15:00.841Z,79.00
2019-02-11T10:17:31.172Z,82.30
2019-02-11T10:20:01.539Z,80.90
2019-02-11T10:22:31.884Z,83.60
2019-02-11T10:25:02.221Z,84.60
2019-02-11T10:27:32.597Z,84.80
2019-02-11T10:30:03.322Z,86.30
2019-02-11T10:32:34.301Z,86.60
2019-02-11T10:35:06.130Z,75.60
2019-02-11T10:37:36.463Z,73.30
2019-02-11T10:40:11.200Z,74.30
2019-02-11T10:42:41.941Z,80.00
2019-02-11T10:45:14.657Z,78.80
2019-02-11T10:47:49.323Z,78.10
2019-02-11T10:50:20.074Z,79.50
2019-02-11T10:52:50.716Z,78.00
2019-02-11T10:55:21.941Z,81.00
2019-02-11T10:57:52.236Z,72.00
2019-02-11T11:00:25.363Z,76.10
2019-02-11T11:02:55.984Z,73.80
2019-02-11T11:05:26.378Z,74.30
2019-02-11T11:07:56.711Z,70.40
2019-02-11T11:10:39.201Z,68.90
2019-02-11T11:13:09.538Z,68.90
2019-02-11T11:15:40.407Z,68.80
2019-02-11T11:18:11.008Z,71.80
2019-02-11T11:20:41.703Z,73.20
2019-02-11T11:23:12.276Z,66.90
2019-02-11T11:25:42.917Z,68.90
2019-02-11T11:28:13.291Z,67.40
2019-02-11T11:30:43.901Z,68.90
2019-02-11T11:33:14.538Z,65.90
2019-02-11T11:35:44.910Z,66.00
2019-02-11T11:38:15.497Z,66.10
2019-02-11T11:40:46.164Z,63.80
2019-02-11T11:43:16.485Z,64.10
2019-02-11T11:45:47.389Z,62.90
2019-02-11T11:48:17.998Z,64.20
2019-02-11T11:50:48.698Z,61.60
2019-02-11T11:53:19.363Z,62.10
2019-02-11T11:55:50.082Z,63.00
2019-02-11T11:58:20.423Z,62.40
2019-02-11T12:00:50.743Z,60.10
2019-02-11T12:03:21.381Z,60.30
2019-02-11T12:05:52.223Z,61.40
2019-02-11T12:08:22.820Z,62.70
2019-02-11T12:10:53.209Z,64.00
2019-02-11T12:13:23.957Z,64.80
2019-02-11T12:15:54.361Z,62.20
2019-02-11T12:18:24.741Z,62.60
2019-02-11T12:20:55.061Z,63.90
2019-02-11T12:23:25.411Z,64.30
2019-02-11T12:25:55.781Z,64.10
2019-02-11T12:28:26.403Z,66.10
2019-02-11T12:30:57.001Z,67.00
2019-02-11T12:33:27.382Z,67.20
2019-02-11T12:35:57.763Z,68.00
2019-02-11T12:38:28.340Z,67.70
2019-02-11T12:40:58.781Z,67.40
2019-02-11T12:43:29.160Z,67.90
2019-02-11T12:45:59.536Z,68.00
2019-02-11T12:48:29.868Z,68.80
2019-02-11T12:51:00.260Z,70.50
2019-02-11T12:53:30.570Z,72.00
2019-02-11T12:56:02.676Z,71.10
2019-02-11T12:58:32.980Z,74.40
2019-02-11T13:01:03.507Z,75.40
2019-02-11T13:03:33.891Z,72.80
2019-02-11T13:06:04.294Z,73.60
2019-02-11T13:08:35.965Z,69.00
2019-02-11T13:11:06.525Z,66.30
2019-02-11T13:13:36.908Z,68.20
2019-02-11T13:16:07.629Z,65.10
2019-02-11T13:18:39.286Z,60.90
2019-02-11T13:21:10.025Z,60.20
2019-02-11T13:23:40.759Z,59.40
2019-02-11T13:26:11.774Z,61.30
2019-02-11T13:28:42.103Z,61.60
2019-02-11T13:31:12.496Z,58.50
2019-02-11T13:33:43.182Z,59.50
2019-02-11T13:36:13.827Z,59.50
2019-02-11T13:38:44.181Z,59.50
2019-02-11T13:41:14.779Z,59.60
2019-02-11T13:43:50.410Z,59.00
2019-02-11T13:46:21.014Z,58.90
2019-02-11T13:48:51.350Z,60.20
2019-02-11T13:51:23.331Z,59.60
2019-02-11T13:53:53.653Z,60.60
2019-02-11T13:56:24.235Z,61.10
2019-02-11T13:58:54.913Z,62.20
2019-02-11T14:01:25.665Z,64.10
2019-02-11T14:03:56.064Z,66.50
2019-02-11T14:06:26.399Z,66.30
2019-02-11T14:08:56.716Z,66.30
2019-02-11T14:11:27.053Z,66.20
2019-02-11T14:14:02.360Z,60.20
2019-02-11T14:16:29.813Z,60.00
2019-02-11T14:19:00.147Z,59.10
2019-02-11T14:21:30.858Z,60.80
2019-02-11T14:24:01.234Z,64.60
2019-02-11T14:26:31.607Z,67.90
2019-02-11T14:29:02.247Z,68.00
2019-02-11T14:31:32.659Z,70.40
2019-02-11T14:34:02.989Z,70.70
2019-02-11T14:36:33.365Z,70.80
2019-02-11T14:39:04.843Z,55.60
2019-02-11T14:41:35.459Z,53.80
2019-02-11T14:44:05.820Z,49.00
2019-02-11T14:46:36.143Z,45.60
2019-02-11T14:49:06.638Z,46.60
2019-02-11T14:51:37.563Z,43.80
2019-02-11T14:54:08.174Z,43.30
2019-02-11T14:56:38.488Z,41.30
2019-02-11T14:59:08.889Z,40.30
2019-02-11T15:01:39.204Z,41.40
2019-02-11T15:04:09.813Z,41.90
2019-02-11T15:06:40.428Z,41.00
2019-02-11T15:09:10.765Z,41.70
2019-02-11T15:11:41.708Z,41.00
2019-02-11T15:14:12.632Z,40.50
2019-02-11T15:16:42.978Z,40.50
2019-02-11T15:19:13.385Z,41.70
2019-02-11T15:21:44.012Z,42.20
2019-02-11T15:24:14.353Z,42.70
2019-02-11T15:26:45.221Z,40.80
2019-02-11T15:29:15.616Z,41.70
2019-02-11T15:31:46.326Z,42.20
2019-02-11T15:34:16.644Z,42.70
2019-02-11T15:36:47.259Z,42.20
2019-02-11T15:39:17.601Z,42.20
2019-02-11T15:41:48.010Z,42.00
2019-02-11T15:44:18.665Z,42.50
2019-02-11T15:46:48.980Z,42.70
2019-02-11T15:49:19.327Z,43.40
2019-02-11T15:51:49.749Z,43.20
2019-02-11T15:54:20.708Z,43.80
2019-02-11T15:56:51.023Z,44.30
2019-02-11T15:59:21.668Z,44.80
2019-02-11T16:01:52.004Z,44.80
2019-02-11T16:04:22.346Z,45.40
2019-02-11T16:06:53.004Z,46.10
2019-02-11T16:09:23.948Z,46.30
2019-02-11T16:11:54.500Z,47.00
2019-02-11T16:14:24.985Z,45.90
2019-02-11T16:16:55.581Z,45.10
2019-02-11T16:19:26.462Z,45.50
2019-02-11T16:21:56.839Z,45.80
2019-02-11T16:24:27.546Z,44.50
2019-02-11T16:26:58.431Z,43.90
2019-02-11T16:29:28.883Z,44.50
2019-02-11T16:32:01.017Z,44.50
2019-02-11T16:34:31.386Z,45.00
2019-02-11T16:37:02.153Z,44.40
2019-02-11T16:39:32.470Z,44.30
2019-02-11T16:42:03.055Z,44.30
2019-02-11T16:44:33.447Z,42.70
2019-02-11T16:47:04.733Z,43.50
2019-02-11T16:49:35.301Z,44.20
2019-02-11T16:52:05.958Z,44.60
2019-02-11T16:54:36.772Z,45.20
2019-02-11T16:57:07.111Z,44.90
2019-02-11T16:59:37.838Z,44.80
2019-02-11T17:02:08.184Z,46.20
2019-02-11T17:04:38.504Z,45.20
2019-02-11T17:07:08.951Z,46.00
2019-02-11T17:09:39.403Z,46.00
2019-02-11T17:12:09.746Z,46.20
2019-02-11T17:14:40.153Z,45.60
2019-02-11T17:17:10.759Z,45.80
2019-02-11T17:19:41.109Z,45.80
2019-02-11T17:22:11.483Z,45.90
2019-02-11T17:24:42.950Z,45.40
2019-02-11T17:27:13.294Z,44.40
2019-02-11T17:29:43.963Z,44.50
2019-02-11T17:32:14.276Z,44.80
2019-02-11T17:34:44.594Z,43.80
2019-02-11T17:37:14.939Z,43.80
2019-02-11T17:39:45.813Z,43.80
2019-02-11T17:42:16.147Z,43.80
2019-02-11T17:44:46.650Z,43.90
2019-02-11T17:47:16.961Z,43.10
2019-02-11T17:49:47.600Z,43.80
2019-02-11T17:52:18.286Z,43.20
2019-02-11T17:54:48.877Z,43.70
2019-02-11T17:57:19.483Z,43.20
2019-02-11T17:59:50.121Z,43.80
2019-02-11T18:02:20.727Z,43.60
2019-02-11T18:04:51.068Z,43.20
2019-02-11T18:07:21.940Z,43.70
2019-02-11T18:09:52.522Z,43.70
2019-02-11T18:12:23.252Z,43.70
2019-02-11T18:14:54.245Z,43.70
2019-02-11T18:17:24.548Z,43.70
2019-02-11T18:19:55.163Z,44.00
2019-02-11T18:22:25.530Z,44.60
2019-02-11T18:24:55.836Z,44.10
2019-02-11T18:27:26.417Z,44.30
2019-02-11T18:29:56.778Z,44.60
2019-02-11T18:32:27.636Z,45.10
2019-02-11T18:34:57.953Z,44.30
2019-02-11T18:37:28.457Z,44.30
2019-02-11T18:39:59.048Z,44.40
2019-02-11T18:42:29.630Z,44.10
2019-02-11T18:45:00.398Z,43.80
2019-02-11T18:47:30.741Z,43.60
2019-02-11T18:50:01.356Z,44.00
2019-02-11T18:52:31.731Z,44.80
2019-02-11T18:55:02.044Z,44.80
2019-02-11T18:57:32.670Z,45.00
2019-02-11T19:00:03.120Z,45.10
2019-02-11T19:02:33.803Z,45.80
2019-02-11T19:05:04.815Z,45.80
2019-02-11T19:07:35.186Z,45.60
2019-02-11T19:10:10.202Z,46.00
2019-02-11T19:12:40.820Z,45.90
2019-02-11T19:15:14.640Z,46.50
2019-02-11T19:17:45.243Z,47.10
2019-02-11T19:20:19.966Z,46.50
2019-02-11T19:22:50.336Z,47.50
2019-02-11T19:25:20.650Z,46.90
2019-02-11T19:27:51.257Z,47.50
2019-02-11T19:30:27.286Z,47.20
2019-02-11T19:32:58.157Z,48.00
2019-02-11T19:35:28.739Z,48.00
2019-02-11T19:37:59.378Z,48.30
2019-02-11T19:40:30.035Z,49.30
2019-02-11T19:43:00.650Z,50.20
2019-02-11T19:45:30.996Z,50.80
2019-02-11T19:48:01.582Z,51.00
2019-02-11T19:50:32.165Z,51.00
2019-02-11T19:53:02.541Z,51.70
2019-02-11T19:55:32.903Z,51.50
2019-02-11T19:58:03.251Z,52.30
2019-02-11T20:00:33.869Z,52.30
2019-02-11T20:03:04.451Z,52.30
2019-02-11T20:05:35.059Z,52.30
2019-02-11T20:08:05.679Z,52.20
2019-02-11T20:10:36.022Z,52.30
2019-02-11T20:13:06.331Z,53.20
2019-02-11T20:15:36.971Z,54.70
2019-02-11T20:18:07.376Z,56.00
2019-02-11T20:20:37.990Z,57.00
2019-02-11T20:23:08.333Z,57.80
2019-02-11T20:25:38.906Z,61.90
2019-02-11T20:28:09.624Z,66.10
2019-02-11T20:30:39.941Z,69.70
2019-02-11T20:33:10.257Z,72.30
2019-02-11T20:35:40.980Z,77.50
2019-02-11T20:38:11.831Z,79.60
2019-02-11T20:40:42.171Z,82.30
2019-02-11T20:43:12.523Z,84.40
2019-02-11T20:45:42.837Z,85.70
2019-02-11T20:48:13.179Z,86.50
2019-02-11T20:50:43.630Z,87.30
2019-02-11T20:53:14.215Z,89.10
2019-02-11T20:55:44.849Z,89.40
2019-02-11T20:58:15.475Z,90.00
2019-02-11T21:00:46.063Z,89.80
2019-02-11T21:03:16.702Z,90.00
2019-02-11T21:05:47.317Z,90.10
2019-02-11T21:08:17.934Z,90.10
2019-02-11T21:10:48.562Z,90.20
2019-02-11T21:13:19.238Z,90.30
2019-02-11T21:15:50.177Z,90.40
2019-02-11T21:18:20.942Z,90.40
2019-02-11T21:20:51.878Z,90.40
2019-02-11T21:23:22.739Z,90.30
2019-02-11T21:25:53.717Z,90.30
2019-02-11T21:28:24.695Z,90.00
2019-02-11T21:30:56.260Z,90.00
2019-02-11T21:33:26.904Z,90.00
2019-02-11T21:35:57.352Z,89.70
2019-02-11T21:38:27.913Z,89.60
2019-02-11T21:40:58.265Z,89.50
2019-02-11T21:43:28.653Z,89.10
2019-02-11T21:45:58.977Z,88.50
2019-02-11T21:48:29.299Z,89.10
2019-02-11T21:50:59.688Z,90.00
2019-02-11T21:53:30.532Z,88.90
2019-02-11T21:56:01.309Z,89.30
2019-02-11T21:58:31.983Z,89.00
2019-02-11T22:01:02.813Z,89.10
2019-02-11T22:03:33.412Z,88.40
2019-02-11T22:06:03.868Z,89.00
2019-02-11T22:08:34.186Z,88.50
2019-02-11T22:11:04.902Z,88.60
2019-02-11T22:13:35.585Z,88.90
2019-02-11T22:16:05.930Z,89.10
2019-02-11T22:18:36.252Z,88.60
2019-02-11T22:21:06.982Z,89.00
2019-02-11T22:23:37.589Z,88.90
2019-02-11T22:26:07.945Z,88.60
2019-02-11T22:28:38.566Z,88.10
2019-02-11T22:31:09.184Z,88.00
2019-02-11T22:33:39.798Z,88.10
2019-02-11T22:36:10.159Z,88.10
2019-02-11T22:38:40.501Z,88.00
2019-02-11T22:41:11.345Z,88.10
2019-02-11T22:43:42.268Z,88.00
2019-02-11T22:46:12.887Z,88.70
2019-02-11T22:48:43.237Z,87.20
2019-02-11T22:51:14.118Z,86.40
2019-02-11T22:53:44.437Z,86.10
2019-02-11T22:56:15.052Z,85.60
2019-02-11T22:58:45.725Z,83.90
2019-02-11T23:01:16.079Z,83.80
2019-02-11T23:03:46.715Z,83.80
2019-02-11T23:06:17.389Z,82.80
2019-02-11T23:08:47.730Z,81.20
2019-02-11T23:11:18.329Z,81.60
2019-02-11T23:13:48.707Z,80.90
2019-02-11T23:16:19.052Z,79.50
2019-02-11T23:18:49.638Z,80.20
2019-02-11T23:21:20.367Z,78.70
2019-02-11T23:23:50.800Z,77.90
2019-02-11T23:26:21.387Z,77.60
2019-02-11T23:28:52.229Z,77.90
2019-02-11T23:31:22.816Z,76.40
2019-02-11T23:33:53.434Z,77.30
2019-02-11T23:36:23.903Z,77.10
2019-02-11T23:38:54.515Z,77.60
2019-02-11T23:41:25.111Z,78.10
2019-02-11T23:43:56.051Z,78.00
2019-02-11T23:46:26.392Z,78.30
2019-02-11T23:48:56.713Z,78.30
2019-02-11T23:51:27.097Z,75.90
2019-02-11T23:53:57.454Z,76.70
2019-02-11T23:56:28.068Z,76.30
2019-02-11T23:58:58.458Z,76.60
